sensor_id;sensor_type;location;lat;lon;timestamp;P1;durP1;ratioP1;P2;durP2;ratioP2
81386;SDS011;70842;50.744;7.114;2023-07-20T00:01:50;8.07;;;5.72;;
81386;SDS011;70842;50.744;7.114;2023-07-20T00:04:17;7.78;;;6.25;;
81386;SDS011;70842;50.744;7.114;2023-07-20T00:06:43;7.80;;;7.05;;
81386;SDS011;70842;50.744;7.114;2023-07-20T00:09:09;5.03;;;3.92;;
81386;SDS011;70842;50.744;7.114;2023-07-20T00:11:36;7.97;;;5.68;;
81386;SDS011;70842;50.744;7.114;2023-07-20T00:14:06;7.93;;;5.70;;
81386;SDS011;70842;50.744;7.114;2023-07-20T00:16:33;7.93;;;6.13;;
81386;SDS011;70842;50.744;7.114;2023-07-20T00:18:59;6.72;;;5.07;;
81386;SDS011;70842;50.744;7.114;2023-07-20T00:21:26;7.28;;;6.22;;
81386;SDS011;70842;50.744;7.114;2023-07-20T00:23:52;7.63;;;5.65;;
81386;SDS011;70842;50.744;7.114;2023-07-20T00:26:19;7.50;;;5.30;;
81386;SDS011;70842;50.744;7.114;2023-07-20T00:28:46;6.57;;;5.57;;
81386;SDS011;70842;50.744;7.114;2023-07-20T00:31:12;7.50;;;6.15;;
81386;SDS011;70842;50.744;7.114;2023-07-20T00:33:39;6.57;;;5.60;;
81386;SDS011;70842;50.744;7.114;2023-07-20T00:36:05;6.25;;;4.43;;
81386;SDS011;70842;50.744;7.114;2023-07-20T00:38:32;6.03;;;4.95;;
81386;SDS011;70842;50.744;7.114;2023-07-20T00:40:59;7.68;;;6.90;;
81386;SDS011;70842;50.744;7.114;2023-07-20T00:43:25;6.97;;;4.25;;
81386;SDS011;70842;50.744;7.114;2023-07-20T00:45:52;7.75;;;5.38;;
81386;SDS011;70842;50.744;7.114;2023-07-20T00:48:18;6.50;;;4.53;;
81386;SDS011;70842;50.744;7.114;2023-07-20T00:50:45;6.10;;;5.50;;
81386;SDS011;70842;50.744;7.114;2023-07-20T00:53:13;6.28;;;5.68;;
81386;SDS011;70842;50.744;7.114;2023-07-20T00:55:39;5.70;;;5.18;;
81386;SDS011;70842;50.744;7.114;2023-07-20T00:58:06;6.22;;;5.70;;
81386;SDS011;70842;50.744;7.114;2023-07-20T01:00:33;6.78;;;5.47;;
81386;SDS011;70842;50.744;7.114;2023-07-20T01:02:59;7.65;;;5.32;;
81386;SDS011;70842;50.744;7.114;2023-07-20T01:05:35;8.05;;;5.25;;
81386;SDS011;70842;50.744;7.114;2023-07-20T01:08:12;6.68;;;4.95;;
81386;SDS011;70842;50.744;7.114;2023-07-20T01:10:46;5.53;;;4.32;;
81386;SDS011;70842;50.744;7.114;2023-07-20T01:13:20;6.20;;;5.30;;
81386;SDS011;70842;50.744;7.114;2023-07-20T01:15:56;7.70;;;4.57;;
81386;SDS011;70842;50.744;7.114;2023-07-20T01:18:24;6.05;;;5.53;;
81386;SDS011;70842;50.744;7.114;2023-07-20T01:20:51;5.53;;;4.10;;
81386;SDS011;70842;50.744;7.114;2023-07-20T01:26:27;7.22;;;6.60;;
81386;SDS011;70842;50.744;7.114;2023-07-20T01:28:57;7.25;;;6.53;;
81386;SDS011;70842;50.744;7.114;2023-07-20T01:35:40;5.60;;;4.82;;
81386;SDS011;70842;50.744;7.114;2023-07-20T01:38:10;7.75;;;6.57;;
81386;SDS011;70842;50.744;7.114;2023-07-20T01:40:39;7.18;;;5.38;;
81386;SDS011;70842;50.744;7.114;2023-07-20T01:43:07;5.43;;;4.10;;
81386;SDS011;70842;50.744;7.114;2023-07-20T01:45:33;6.18;;;5.25;;
81386;SDS011;70842;50.744;7.114;2023-07-20T01:48:00;5.25;;;4.70;;
81386;SDS011;70842;50.744;7.114;2023-07-20T01:50:26;8.57;;;7.70;;
81386;SDS011;70842;50.744;7.114;2023-07-20T01:52:52;5.80;;;4.65;;
81386;SDS011;70842;50.744;7.114;2023-07-20T01:55:19;5.95;;;4.22;;
81386;SDS011;70842;50.744;7.114;2023-07-20T01:57:45;6.13;;;5.53;;
81386;SDS011;70842;50.744;7.114;2023-07-20T02:00:12;9.15;;;7.15;;
81386;SDS011;70842;50.744;7.114;2023-07-20T02:02:38;5.95;;;5.10;;
81386;SDS011;70842;50.744;7.114;2023-07-20T02:05:05;5.90;;;4.30;;
81386;SDS011;70842;50.744;7.114;2023-07-20T02:07:32;6.47;;;4.35;;
81386;SDS011;70842;50.744;7.114;2023-07-20T02:09:58;6.03;;;4.28;;
81386;SDS011;70842;50.744;7.114;2023-07-20T02:12:24;6.57;;;5.72;;
81386;SDS011;70842;50.744;7.114;2023-07-20T02:14:51;6.32;;;5.72;;
81386;SDS011;70842;50.744;7.114;2023-07-20T02:17:17;7.72;;;4.97;;
81386;SDS011;70842;50.744;7.114;2023-07-20T02:19:44;5.53;;;4.10;;
81386;SDS011;70842;50.744;7.114;2023-07-20T02:22:10;6.95;;;5.60;;
81386;SDS011;70842;50.744;7.114;2023-07-20T02:24:37;5.75;;;5.15;;
81386;SDS011;70842;50.744;7.114;2023-07-20T02:27:03;5.95;;;5.25;;
81386;SDS011;70842;50.744;7.114;2023-07-20T02:29:30;5.18;;;3.90;;
81386;SDS011;70842;50.744;7.114;2023-07-20T02:31:56;6.30;;;4.28;;
81386;SDS011;70842;50.744;7.114;2023-07-20T02:34:23;5.68;;;4.78;;
81386;SDS011;70842;50.744;7.114;2023-07-20T02:36:49;6.72;;;4.97;;
81386;SDS011;70842;50.744;7.114;2023-07-20T02:39:15;6.55;;;5.90;;
81386;SDS011;70842;50.744;7.114;2023-07-20T02:41:42;6.25;;;5.70;;
81386;SDS011;70842;50.744;7.114;2023-07-20T02:44:08;7.43;;;5.05;;
81386;SDS011;70842;50.744;7.114;2023-07-20T02:46:35;6.65;;;5.45;;
81386;SDS011;70842;50.744;7.114;2023-07-20T02:49:01;5.90;;;5.40;;
81386;SDS011;70842;50.744;7.114;2023-07-20T02:51:28;6.20;;;5.60;;
81386;SDS011;70842;50.744;7.114;2023-07-20T02:53:54;6.20;;;4.78;;
81386;SDS011;70842;50.744;7.114;2023-07-20T02:56:21;6.88;;;5.63;;
81386;SDS011;70842;50.744;7.114;2023-07-20T02:58:49;5.75;;;4.25;;
81386;SDS011;70842;50.744;7.114;2023-07-20T03:01:16;5.20;;;4.70;;
81386;SDS011;70842;50.744;7.114;2023-07-20T03:03:42;6.10;;;4.80;;
81386;SDS011;70842;50.744;7.114;2023-07-20T03:06:13;7.20;;;5.65;;
81386;SDS011;70842;50.744;7.114;2023-07-20T03:08:41;7.05;;;6.35;;
81386;SDS011;70842;50.744;7.114;2023-07-20T03:11:11;4.95;;;4.30;;
81386;SDS011;70842;50.744;7.114;2023-07-20T03:13:38;7.30;;;5.15;;
81386;SDS011;70842;50.744;7.114;2023-07-20T03:16:04;8.43;;;7.72;;
81386;SDS011;70842;50.744;7.114;2023-07-20T03:18:30;8.07;;;7.15;;
81386;SDS011;70842;50.744;7.114;2023-07-20T03:20:57;6.70;;;6.00;;
81386;SDS011;70842;50.744;7.114;2023-07-20T03:23:23;6.18;;;5.57;;
81386;SDS011;70842;50.744;7.114;2023-07-20T03:25:49;6.78;;;5.05;;
81386;SDS011;70842;50.744;7.114;2023-07-20T03:28:16;6.95;;;4.72;;
81386;SDS011;70842;50.744;7.114;2023-07-20T03:30:42;7.15;;;5.70;;
81386;SDS011;70842;50.744;7.114;2023-07-20T03:33:09;7.47;;;6.80;;
81386;SDS011;70842;50.744;7.114;2023-07-20T03:35:35;6.60;;;5.40;;
81386;SDS011;70842;50.744;7.114;2023-07-20T03:38:01;6.80;;;5.45;;
81386;SDS011;70842;50.744;7.114;2023-07-20T03:40:28;5.63;;;5.05;;
81386;SDS011;70842;50.744;7.114;2023-07-20T03:42:54;6.05;;;5.45;;
81386;SDS011;70842;50.744;7.114;2023-07-20T03:45:21;7.85;;;6.45;;
81386;SDS011;70842;50.744;7.114;2023-07-20T03:47:50;6.13;;;4.80;;
81386;SDS011;70842;50.744;7.114;2023-07-20T03:50:16;5.97;;;4.78;;
81386;SDS011;70842;50.744;7.114;2023-07-20T03:52:43;7.05;;;5.28;;
81386;SDS011;70842;50.744;7.114;2023-07-20T03:55:09;9.38;;;4.80;;
81386;SDS011;70842;50.744;7.114;2023-07-20T03:57:36;6.05;;;5.50;;
81386;SDS011;70842;50.744;7.114;2023-07-20T04:00:02;5.93;;;5.30;;
81386;SDS011;70842;50.744;7.114;2023-07-20T04:04:59;8.23;;;7.43;;
81386;SDS011;70842;50.744;7.114;2023-07-20T04:07:25;6.57;;;5.72;;
81386;SDS011;70842;50.744;7.114;2023-07-20T04:09:52;7.28;;;6.05;;
81386;SDS011;70842;50.744;7.114;2023-07-20T04:12:18;6.78;;;6.15;;
81386;SDS011;70842;50.744;7.114;2023-07-20T04:14:45;5.70;;;5.15;;
81386;SDS011;70842;50.744;7.114;2023-07-20T04:17:11;5.85;;;5.28;;
81386;SDS011;70842;50.744;7.114;2023-07-20T04:19:39;8.65;;;6.07;;
81386;SDS011;70842;50.744;7.114;2023-07-20T04:22:05;6.32;;;5.70;;
81386;SDS011;70842;50.744;7.114;2023-07-20T04:24:32;6.15;;;5.05;;
81386;SDS011;70842;50.744;7.114;2023-07-20T04:26:58;6.70;;;5.93;;
81386;SDS011;70842;50.744;7.114;2023-07-20T04:29:24;8.73;;;5.53;;
81386;SDS011;70842;50.744;7.114;2023-07-20T04:31:51;6.85;;;5.97;;
81386;SDS011;70842;50.744;7.114;2023-07-20T04:34:17;6.80;;;6.15;;
81386;SDS011;70842;50.744;7.114;2023-07-20T04:36:46;7.13;;;4.82;;
81386;SDS011;70842;50.744;7.114;2023-07-20T04:39:13;7.80;;;6.63;;
81386;SDS011;70842;50.744;7.114;2023-07-20T04:41:56;5.57;;;4.45;;
81386;SDS011;70842;50.744;7.114;2023-07-20T04:44:23;8.75;;;5.85;;
81386;SDS011;70842;50.744;7.114;2023-07-20T04:46:50;5.90;;;5.00;;
81386;SDS011;70842;50.744;7.114;2023-07-20T04:49:17;5.75;;;4.07;;
81386;SDS011;70842;50.744;7.114;2023-07-20T04:51:43;6.97;;;4.93;;
81386;SDS011;70842;50.744;7.114;2023-07-20T04:54:10;7.80;;;5.10;;
81386;SDS011;70842;50.744;7.114;2023-07-20T04:56:36;6.53;;;4.82;;
81386;SDS011;70842;50.744;7.114;2023-07-20T04:59:02;6.72;;;4.03;;
81386;SDS011;70842;50.744;7.114;2023-07-20T05:01:29;5.93;;;5.18;;
81386;SDS011;70842;50.744;7.114;2023-07-20T05:03:55;10.10;;;5.18;;
81386;SDS011;70842;50.744;7.114;2023-07-20T05:06:22;7.60;;;6.90;;
81386;SDS011;70842;50.744;7.114;2023-07-20T05:08:48;6.85;;;6.25;;
81386;SDS011;70842;50.744;7.114;2023-07-20T05:11:15;8.55;;;6.30;;
81386;SDS011;70842;50.744;7.114;2023-07-20T05:13:42;7.25;;;6.05;;
81386;SDS011;70842;50.744;7.114;2023-07-20T05:16:08;5.47;;;4.95;;
81386;SDS011;70842;50.744;7.114;2023-07-20T05:18:35;8.45;;;6.05;;
81386;SDS011;70842;50.744;7.114;2023-07-20T05:21:01;8.75;;;5.72;;
81386;SDS011;70842;50.744;7.114;2023-07-20T05:23:27;9.10;;;5.80;;
81386;SDS011;70842;50.744;7.114;2023-07-20T05:25:55;6.25;;;4.82;;
81386;SDS011;70842;50.744;7.114;2023-07-20T05:28:22;6.00;;;4.97;;
81386;SDS011;70842;50.744;7.114;2023-07-20T05:30:53;6.97;;;6.28;;
81386;SDS011;70842;50.744;7.114;2023-07-20T05:33:20;6.88;;;5.93;;
81386;SDS011;70842;50.744;7.114;2023-07-20T05:35:47;12.32;;;9.10;;
81386;SDS011;70842;50.744;7.114;2023-07-20T05:38:14;10.38;;;6.07;;
81386;SDS011;70842;50.744;7.114;2023-07-20T05:40:40;11.05;;;6.85;;
81386;SDS011;70842;50.744;7.114;2023-07-20T05:43:10;7.93;;;6.78;;
81386;SDS011;70842;50.744;7.114;2023-07-20T05:45:37;10.30;;;6.50;;
81386;SDS011;70842;50.744;7.114;2023-07-20T05:50:36;9.27;;;6.53;;
81386;SDS011;70842;50.744;7.114;2023-07-20T05:53:02;9.98;;;7.47;;
81386;SDS011;70842;50.744;7.114;2023-07-20T05:55:29;11.50;;;8.10;;
81386;SDS011;70842;50.744;7.114;2023-07-20T05:57:55;8.70;;;7.45;;
81386;SDS011;70842;50.744;7.114;2023-07-20T06:00:22;12.27;;;7.85;;
81386;SDS011;70842;50.744;7.114;2023-07-20T06:02:53;10.43;;;7.85;;
81386;SDS011;70842;50.744;7.114;2023-07-20T06:05:21;9.98;;;8.23;;
81386;SDS011;70842;50.744;7.114;2023-07-20T06:07:52;10.50;;;7.43;;
81386;SDS011;70842;50.744;7.114;2023-07-20T06:10:20;9.73;;;7.32;;
81386;SDS011;70842;50.744;7.114;2023-07-20T06:12:47;9.70;;;8.32;;
81386;SDS011;70842;50.744;7.114;2023-07-20T06:15:26;13.60;;;9.38;;
81386;SDS011;70842;50.744;7.114;2023-07-20T06:17:54;9.38;;;7.95;;
81386;SDS011;70842;50.744;7.114;2023-07-20T06:20:22;12.90;;;8.25;;
81386;SDS011;70842;50.744;7.114;2023-07-20T06:22:48;9.32;;;8.00;;
81386;SDS011;70842;50.744;7.114;2023-07-20T06:25:15;10.60;;;6.10;;
81386;SDS011;70842;50.744;7.114;2023-07-20T06:27:42;11.15;;;8.63;;
81386;SDS011;70842;50.744;7.114;2023-07-20T06:30:09;11.30;;;10.10;;
81386;SDS011;70842;50.744;7.114;2023-07-20T06:32:36;9.82;;;7.07;;
81386;SDS011;70842;50.744;7.114;2023-07-20T06:35:03;9.07;;;8.23;;
81386;SDS011;70842;50.744;7.114;2023-07-20T06:37:29;8.77;;;7.25;;
81386;SDS011;70842;50.744;7.114;2023-07-20T06:39:56;13.05;;;8.35;;
81386;SDS011;70842;50.744;7.114;2023-07-20T06:42:25;10.60;;;9.20;;
81386;SDS011;70842;50.744;7.114;2023-07-20T06:45:12;10.52;;;9.20;;
81386;SDS011;70842;50.744;7.114;2023-07-20T06:47:39;10.20;;;8.32;;
81386;SDS011;70842;50.744;7.114;2023-07-20T06:50:06;10.93;;;8.90;;
81386;SDS011;70842;50.744;7.114;2023-07-20T06:52:33;10.63;;;9.52;;
81386;SDS011;70842;50.744;7.114;2023-07-20T06:55:00;9.45;;;8.55;;
81386;SDS011;70842;50.744;7.114;2023-07-20T06:57:31;9.93;;;8.55;;
81386;SDS011;70842;50.744;7.114;2023-07-20T06:59:57;9.98;;;8.93;;
81386;SDS011;70842;50.744;7.114;2023-07-20T07:02:23;9.63;;;7.07;;
81386;SDS011;70842;50.744;7.114;2023-07-20T07:04:50;10.80;;;9.23;;
81386;SDS011;70842;50.744;7.114;2023-07-20T07:07:26;9.90;;;8.90;;
81386;SDS011;70842;50.744;7.114;2023-07-20T07:09:56;11.73;;;10.40;;
81386;SDS011;70842;50.744;7.114;2023-07-20T07:12:22;11.63;;;10.18;;
81386;SDS011;70842;50.744;7.114;2023-07-20T07:14:49;11.73;;;9.45;;
81386;SDS011;70842;50.744;7.114;2023-07-20T07:17:15;11.35;;;7.45;;
81386;SDS011;70842;50.744;7.114;2023-07-20T07:19:45;14.32;;;10.30;;
81386;SDS011;70842;50.744;7.114;2023-07-20T07:22:14;8.00;;;7.20;;
81386;SDS011;70842;50.744;7.114;2023-07-20T07:24:41;9.60;;;7.78;;
81386;SDS011;70842;50.744;7.114;2023-07-20T07:27:08;8.10;;;7.07;;
81386;SDS011;70842;50.744;7.114;2023-07-20T07:29:35;8.57;;;7.00;;
81386;SDS011;70842;50.744;7.114;2023-07-20T07:32:01;11.52;;;8.43;;
81386;SDS011;70842;50.744;7.114;2023-07-20T07:34:28;10.13;;;8.85;;
81386;SDS011;70842;50.744;7.114;2023-07-20T07:36:54;8.50;;;7.53;;
81386;SDS011;70842;50.744;7.114;2023-07-20T07:39:21;10.88;;;9.02;;
81386;SDS011;70842;50.744;7.114;2023-07-20T07:41:50;9.50;;;8.25;;
81386;SDS011;70842;50.744;7.114;2023-07-20T07:44:17;10.45;;;7.88;;
81386;SDS011;70842;50.744;7.114;2023-07-20T07:46:44;8.48;;;7.30;;
81386;SDS011;70842;50.744;7.114;2023-07-20T07:49:10;9.40;;;8.18;;
81386;SDS011;70842;50.744;7.114;2023-07-20T07:51:37;9.95;;;8.48;;
81386;SDS011;70842;50.744;7.114;2023-07-20T07:54:03;9.23;;;8.15;;
81386;SDS011;70842;50.744;7.114;2023-07-20T07:56:30;11.00;;;9.40;;
81386;SDS011;70842;50.744;7.114;2023-07-20T07:58:57;8.63;;;7.72;;
81386;SDS011;70842;50.744;7.114;2023-07-20T08:01:23;8.48;;;7.47;;
81386;SDS011;70842;50.744;7.114;2023-07-20T08:03:50;7.82;;;7.13;;
81386;SDS011;70842;50.744;7.114;2023-07-20T08:06:17;11.18;;;9.05;;
81386;SDS011;70842;50.744;7.114;2023-07-20T08:08:43;9.45;;;8.02;;
81386;SDS011;70842;50.744;7.114;2023-07-20T08:11:10;7.15;;;6.13;;
81386;SDS011;70842;50.744;7.114;2023-07-20T08:13:38;8.27;;;7.30;;
81386;SDS011;70842;50.744;7.114;2023-07-20T08:16:04;7.55;;;6.82;;
81386;SDS011;70842;50.744;7.114;2023-07-20T08:18:31;8.23;;;7.22;;
81386;SDS011;70842;50.744;7.114;2023-07-20T08:20:57;7.10;;;6.20;;
81386;SDS011;70842;50.744;7.114;2023-07-20T08:23:24;8.93;;;6.15;;
81386;SDS011;70842;50.744;7.114;2023-07-20T08:25:50;8.95;;;5.90;;
81386;SDS011;70842;50.744;7.114;2023-07-20T08:28:17;9.75;;;9.02;;
81386;SDS011;70842;50.744;7.114;2023-07-20T08:30:44;9.00;;;5.68;;
81386;SDS011;70842;50.744;7.114;2023-07-20T08:33:14;8.85;;;8.05;;
81386;SDS011;70842;50.744;7.114;2023-07-20T08:35:42;7.32;;;6.13;;
81386;SDS011;70842;50.744;7.114;2023-07-20T08:38:09;7.80;;;6.63;;
81386;SDS011;70842;50.744;7.114;2023-07-20T08:40:39;6.43;;;5.80;;
81386;SDS011;70842;50.744;7.114;2023-07-20T08:43:07;6.68;;;5.78;;
81386;SDS011;70842;50.744;7.114;2023-07-20T08:45:34;6.35;;;5.75;;
81386;SDS011;70842;50.744;7.114;2023-07-20T08:48:04;6.80;;;6.07;;
81386;SDS011;70842;50.744;7.114;2023-07-20T08:50:32;5.50;;;4.25;;
81386;SDS011;70842;50.744;7.114;2023-07-20T08:52:59;5.50;;;4.93;;
81386;SDS011;70842;50.744;7.114;2023-07-20T08:55:26;5.50;;;4.93;;
81386;SDS011;70842;50.744;7.114;2023-07-20T08:58:00;5.88;;;4.82;;
81386;SDS011;70842;50.744;7.114;2023-07-20T09:00:27;5.82;;;5.30;;
81386;SDS011;70842;50.744;7.114;2023-07-20T09:02:56;5.75;;;5.25;;
81386;SDS011;70842;50.744;7.114;2023-07-20T09:05:24;6.78;;;5.20;;
81386;SDS011;70842;50.744;7.114;2023-07-20T09:07:52;5.25;;;4.50;;
81386;SDS011;70842;50.744;7.114;2023-07-20T09:10:22;5.55;;;5.05;;
81386;SDS011;70842;50.744;7.114;2023-07-20T09:12:50;6.57;;;5.38;;
81386;SDS011;70842;50.744;7.114;2023-07-20T09:15:17;6.20;;;5.68;;
81386;SDS011;70842;50.744;7.114;2023-07-20T09:17:46;6.38;;;5.78;;
81386;SDS011;70842;50.744;7.114;2023-07-20T09:20:15;5.43;;;4.90;;
81386;SDS011;70842;50.744;7.114;2023-07-20T09:22:47;5.22;;;3.55;;
81386;SDS011;70842;50.744;7.114;2023-07-20T09:25:16;4.85;;;4.05;;
81386;SDS011;70842;50.744;7.114;2023-07-20T09:27:44;4.75;;;4.35;;
81386;SDS011;70842;50.744;7.114;2023-07-20T09:30:13;5.32;;;4.65;;
81386;SDS011;70842;50.744;7.114;2023-07-20T09:32:48;5.43;;;4.88;;
81386;SDS011;70842;50.744;7.114;2023-07-20T09:35:20;4.88;;;4.13;;
81386;SDS011;70842;50.744;7.114;2023-07-20T09:37:54;6.18;;;5.68;;
81386;SDS011;70842;50.744;7.114;2023-07-20T09:40:27;5.47;;;4.85;;
81386;SDS011;70842;50.744;7.114;2023-07-20T09:42:58;5.78;;;4.57;;
81386;SDS011;70842;50.744;7.114;2023-07-20T09:45:33;5.85;;;4.57;;
81386;SDS011;70842;50.744;7.114;2023-07-20T09:48:03;5.45;;;3.95;;
81386;SDS011;70842;50.744;7.114;2023-07-20T09:50:34;5.88;;;5.38;;
81386;SDS011;70842;50.744;7.114;2023-07-20T09:53:06;4.90;;;4.47;;
81386;SDS011;70842;50.744;7.114;2023-07-20T09:55:36;6.03;;;4.82;;
81386;SDS011;70842;50.744;7.114;2023-07-20T09:58:04;5.53;;;5.03;;
81386;SDS011;70842;50.744;7.114;2023-07-20T10:00:34;4.68;;;4.05;;
81386;SDS011;70842;50.744;7.114;2023-07-20T10:03:06;6.68;;;4.18;;
81386;SDS011;70842;50.744;7.114;2023-07-20T10:05:33;5.65;;;4.75;;
81386;SDS011;70842;50.744;7.114;2023-07-20T10:08:02;5.30;;;4.28;;
81386;SDS011;70842;50.744;7.114;2023-07-20T10:10:33;4.38;;;3.67;;
81386;SDS011;70842;50.744;7.114;2023-07-20T10:13:01;5.65;;;4.30;;
81386;SDS011;70842;50.744;7.114;2023-07-20T10:15:43;7.15;;;5.20;;
81386;SDS011;70842;50.744;7.114;2023-07-20T10:21:03;5.93;;;5.43;;
81386;SDS011;70842;50.744;7.114;2023-07-20T10:23:36;6.20;;;5.47;;
81386;SDS011;70842;50.744;7.114;2023-07-20T10:26:05;6.45;;;5.93;;
81386;SDS011;70842;50.744;7.114;2023-07-20T10:28:32;6.20;;;5.60;;
81386;SDS011;70842;50.744;7.114;2023-07-20T10:30:58;5.10;;;4.60;;
81386;SDS011;70842;50.744;7.114;2023-07-20T10:33:25;7.63;;;4.32;;
81386;SDS011;70842;50.744;7.114;2023-07-20T10:35:56;6.68;;;5.82;;
81386;SDS011;70842;50.744;7.114;2023-07-20T10:38:42;5.03;;;4.18;;
81386;SDS011;70842;50.744;7.114;2023-07-20T10:41:34;4.80;;;4.40;;
81386;SDS011;70842;50.744;7.114;2023-07-20T10:44:02;5.00;;;3.33;;
81386;SDS011;70842;50.744;7.114;2023-07-20T10:49:08;5.22;;;4.50;;
81386;SDS011;70842;50.744;7.114;2023-07-20T10:54:12;4.57;;;4.18;;
81386;SDS011;70842;50.744;7.114;2023-07-20T10:56:55;5.80;;;4.10;;
81386;SDS011;70842;50.744;7.114;2023-07-20T11:01:50;3.95;;;3.65;;
81386;SDS011;70842;50.744;7.114;2023-07-20T11:04:40;5.50;;;4.15;;
81386;SDS011;70842;50.744;7.114;2023-07-20T11:07:07;4.95;;;4.20;;
81386;SDS011;70842;50.744;7.114;2023-07-20T11:09:34;5.43;;;4.50;;
81386;SDS011;70842;50.744;7.114;2023-07-20T11:12:14;4.53;;;3.63;;
81386;SDS011;70842;50.744;7.114;2023-07-20T11:14:54;7.05;;;5.53;;
81386;SDS011;70842;50.744;7.114;2023-07-20T11:17:29;5.28;;;4.05;;
81386;SDS011;70842;50.744;7.114;2023-07-20T11:19:58;4.78;;;3.80;;
81386;SDS011;70842;50.744;7.114;2023-07-20T11:22:33;5.55;;;3.67;;
81386;SDS011;70842;50.744;7.114;2023-07-20T11:24:59;3.83;;;3.30;;
81386;SDS011;70842;50.744;7.114;2023-07-20T11:27:26;5.07;;;3.35;;
81386;SDS011;70842;50.744;7.114;2023-07-20T11:29:54;5.60;;;5.05;;
81386;SDS011;70842;50.744;7.114;2023-07-20T11:32:21;5.22;;;4.13;;
81386;SDS011;70842;50.744;7.114;2023-07-20T11:34:49;4.50;;;4.10;;
81386;SDS011;70842;50.744;7.114;2023-07-20T11:37:16;4.88;;;4.47;;
81386;SDS011;70842;50.744;7.114;2023-07-20T11:39:44;4.45;;;3.83;;
81386;SDS011;70842;50.744;7.114;2023-07-20T11:42:11;5.15;;;4.15;;
81386;SDS011;70842;50.744;7.114;2023-07-20T11:44:39;4.43;;;3.83;;
81386;SDS011;70842;50.744;7.114;2023-07-20T11:47:10;4.97;;;3.83;;
81386;SDS011;70842;50.744;7.114;2023-07-20T11:49:42;3.53;;;3.22;;
81386;SDS011;70842;50.744;7.114;2023-07-20T11:52:15;6.10;;;3.45;;
81386;SDS011;70842;50.744;7.114;2023-07-20T11:54:43;4.15;;;3.03;;
81386;SDS011;70842;50.744;7.114;2023-07-20T11:57:20;6.72;;;3.75;;
81386;SDS011;70842;50.744;7.114;2023-07-20T11:59:57;4.10;;;3.70;;
81386;SDS011;70842;50.744;7.114;2023-07-20T12:02:27;4.97;;;3.47;;
81386;SDS011;70842;50.744;7.114;2023-07-20T12:04:54;6.70;;;3.88;;
81386;SDS011;70842;50.744;7.114;2023-07-20T12:07:22;4.43;;;3.30;;
81386;SDS011;70842;50.744;7.114;2023-07-20T12:10:07;7.45;;;3.75;;
81386;SDS011;70842;50.744;7.114;2023-07-20T12:12:42;5.45;;;3.83;;
81386;SDS011;70842;50.744;7.114;2023-07-20T12:17:43;5.70;;;4.10;;
81386;SDS011;70842;50.744;7.114;2023-07-20T12:20:11;3.72;;;3.05;;
81386;SDS011;70842;50.744;7.114;2023-07-20T12:22:39;4.05;;;3.65;;
81386;SDS011;70842;50.744;7.114;2023-07-20T12:25:09;4.05;;;2.92;;
81386;SDS011;70842;50.744;7.114;2023-07-20T12:27:36;4.15;;;3.47;;
81386;SDS011;70842;50.744;7.114;2023-07-20T12:30:05;4.15;;;3.13;;
81386;SDS011;70842;50.744;7.114;2023-07-20T12:32:32;5.88;;;2.90;;
81386;SDS011;70842;50.744;7.114;2023-07-20T12:34:59;3.70;;;3.30;;
81386;SDS011;70842;50.744;7.114;2023-07-20T12:37:26;5.82;;;3.88;;
81386;SDS011;70842;50.744;7.114;2023-07-20T12:39:53;6.05;;;3.75;;
81386;SDS011;70842;50.744;7.114;2023-07-20T12:42:19;4.78;;;3.08;;
81386;SDS011;70842;50.744;7.114;2023-07-20T12:44:46;3.80;;;3.40;;
81386;SDS011;70842;50.744;7.114;2023-07-20T12:47:13;4.95;;;3.80;;
81386;SDS011;70842;50.744;7.114;2023-07-20T12:49:39;4.78;;;2.50;;
81386;SDS011;70842;50.744;7.114;2023-07-20T12:52:06;4.75;;;3.50;;
81386;SDS011;70842;50.744;7.114;2023-07-20T12:54:34;3.83;;;2.97;;
81386;SDS011;70842;50.744;7.114;2023-07-20T12:57:00;4.40;;;3.35;;
81386;SDS011;70842;50.744;7.114;2023-07-20T12:59:32;3.80;;;2.92;;
81386;SDS011;70842;50.744;7.114;2023-07-20T13:01:59;4.30;;;3.70;;
81386;SDS011;70842;50.744;7.114;2023-07-20T13:04:25;5.47;;;3.97;;
81386;SDS011;70842;50.744;7.114;2023-07-20T13:06:52;4.60;;;3.38;;
81386;SDS011;70842;50.744;7.114;2023-07-20T13:09:18;3.60;;;3.20;;
81386;SDS011;70842;50.744;7.114;2023-07-20T13:11:45;4.00;;;2.95;;
81386;SDS011;70842;50.744;7.114;2023-07-20T13:14:12;6.53;;;3.70;;
81386;SDS011;70842;50.744;7.114;2023-07-20T13:16:38;5.10;;;4.60;;
81386;SDS011;70842;50.744;7.114;2023-07-20T13:19:04;4.28;;;3.13;;
81386;SDS011;70842;50.744;7.114;2023-07-20T13:21:31;5.63;;;3.65;;
81386;SDS011;70842;50.744;7.114;2023-07-20T13:23:57;3.67;;;2.35;;
81386;SDS011;70842;50.744;7.114;2023-07-20T13:26:24;3.70;;;3.38;;
81386;SDS011;70842;50.744;7.114;2023-07-20T13:28:50;3.67;;;2.97;;
81386;SDS011;70842;50.744;7.114;2023-07-20T13:31:17;4.20;;;3.83;;
81386;SDS011;70842;50.744;7.114;2023-07-20T13:33:44;3.13;;;2.78;;
81386;SDS011;70842;50.744;7.114;2023-07-20T13:36:20;3.90;;;2.72;;
81386;SDS011;70842;50.744;7.114;2023-07-20T13:38:48;3.25;;;2.83;;
81386;SDS011;70842;50.744;7.114;2023-07-20T13:41:14;3.17;;;2.70;;
81386;SDS011;70842;50.744;7.114;2023-07-20T13:43:44;3.60;;;2.92;;
81386;SDS011;70842;50.744;7.114;2023-07-20T13:46:10;4.93;;;3.00;;
81386;SDS011;70842;50.744;7.114;2023-07-20T13:48:42;3.35;;;2.53;;
81386;SDS011;70842;50.744;7.114;2023-07-20T13:51:09;4.00;;;3.40;;
81386;SDS011;70842;50.744;7.114;2023-07-20T13:53:35;3.10;;;2.65;;
81386;SDS011;70842;50.744;7.114;2023-07-20T13:56:04;3.30;;;2.33;;
81386;SDS011;70842;50.744;7.114;2023-07-20T13:58:34;3.45;;;2.95;;
81386;SDS011;70842;50.744;7.114;2023-07-20T14:01:00;3.80;;;3.50;;
81386;SDS011;70842;50.744;7.114;2023-07-20T14:03:27;4.00;;;2.55;;
81386;SDS011;70842;50.744;7.114;2023-07-20T14:05:53;3.33;;;2.28;;
81386;SDS011;70842;50.744;7.114;2023-07-20T14:08:23;4.05;;;2.88;;
81386;SDS011;70842;50.744;7.114;2023-07-20T14:10:49;3.28;;;2.97;;
81386;SDS011;70842;50.744;7.114;2023-07-20T14:13:18;3.95;;;2.75;;
81386;SDS011;70842;50.744;7.114;2023-07-20T14:15:49;4.30;;;3.33;;
81386;SDS011;70842;50.744;7.114;2023-07-20T14:18:16;3.25;;;2.22;;
81386;SDS011;70842;50.744;7.114;2023-07-20T14:20:45;3.58;;;2.58;;
81386;SDS011;70842;50.744;7.114;2023-07-20T14:23:12;3.05;;;2.58;;
81386;SDS011;70842;50.744;7.114;2023-07-20T14:25:38;4.75;;;3.33;;
81386;SDS011;70842;50.744;7.114;2023-07-20T14:28:04;3.97;;;3.58;;
81386;SDS011;70842;50.744;7.114;2023-07-20T14:30:31;4.82;;;4.03;;
81386;SDS011;70842;50.744;7.114;2023-07-20T14:32:57;4.32;;;3.20;;
81386;SDS011;70842;50.744;7.114;2023-07-20T14:35:24;4.28;;;3.13;;
81386;SDS011;70842;50.744;7.114;2023-07-20T14:37:51;4.72;;;3.97;;
81386;SDS011;70842;50.744;7.114;2023-07-20T14:40:18;4.50;;;2.80;;
81386;SDS011;70842;50.744;7.114;2023-07-20T14:42:45;4.10;;;2.67;;
81386;SDS011;70842;50.744;7.114;2023-07-20T14:45:12;3.45;;;3.15;;
81386;SDS011;70842;50.744;7.114;2023-07-20T14:47:39;5.85;;;2.72;;
81386;SDS011;70842;50.744;7.114;2023-07-20T14:50:05;3.05;;;2.35;;
81386;SDS011;70842;50.744;7.114;2023-07-20T14:52:32;3.58;;;2.30;;
81386;SDS011;70842;50.744;7.114;2023-07-20T14:54:58;3.17;;;2.47;;
81386;SDS011;70842;50.744;7.114;2023-07-20T14:57:25;5.22;;;2.35;;
81386;SDS011;70842;50.744;7.114;2023-07-20T14:59:51;3.40;;;2.92;;
81386;SDS011;70842;50.744;7.114;2023-07-20T15:02:18;3.20;;;2.45;;
81386;SDS011;70842;50.744;7.114;2023-07-20T15:04:46;5.35;;;2.75;;
81386;SDS011;70842;50.744;7.114;2023-07-20T15:07:13;3.88;;;2.33;;
81386;SDS011;70842;50.744;7.114;2023-07-20T15:09:40;4.65;;;4.00;;
81386;SDS011;70842;50.744;7.114;2023-07-20T15:12:12;6.38;;;2.75;;
81386;SDS011;70842;50.744;7.114;2023-07-20T15:14:40;6.72;;;2.70;;
81386;SDS011;70842;50.744;7.114;2023-07-20T15:17:11;4.15;;;3.35;;